Time;durP1;ratioP1;P1;durP2;ratioP2;P2;SDS_P1;SDS_P2;PMS_P1;PMS_P2;Temp;Humidity;BMP_temperature;BMP_pressure;BME280_temperature;BME280_humidity;BME280_pressure;Samples;Min_cycle;Max_cycle;Signal;HPM_P1;HPM_P2
2022/06/11 00:01:14;;;;;;;8.73;5.18;;;16.30;99.90;;;;;;5031549;28;20116;-66
2022/06/11 00:03:41;;;;;;;;;;;16.30;99.90;;;;;;5030896;28;20106;-65
2022/06/11 00:06:06;;;;;;;8.45;5.20;;;16.30;99.90;;;;;;5031574;28;19921;-65
2022/06/11 00:08:33;;;;;;;8.40;5.00;;;16.30;99.90;;;;;;5014860;28;20037;-65
2022/06/11 00:10:59;;;;;;;7.47;4.60;;;16.30;99.90;;;;;;5015189;28;20507;-65
2022/06/11 00:13:25;;;;;;;9.25;4.93;;;16.30;99.90;;;;;;5015019;28;20147;-65
2022/06/11 00:15:54;;;;;;;6.75;4.63;;;16.30;99.90;;;;;;5031329;28;20064;-64
2022/06/11 00:18:22;;;;;;;7.13;4.78;;;16.30;99.90;;;;;;5031190;28;20069;-65
2022/06/11 00:20:48;;;;;;;8.68;4.95;;;16.30;99.90;;;;;;5014998;28;20467;-65
2022/06/11 00:23:14;;;;;;;6.78;3.60;;;16.20;99.90;;;;;;5014559;28;20107;-66
2022/06/11 00:25:40;;;;;;;8.20;4.18;;;16.20;99.90;;;;;;5036403;28;20044;-65
2022/06/11 00:28:06;;;;;;;7.95;4.25;;;16.20;99.90;;;;;;5053571;28;20099;-65
2022/06/11 00:30:33;;;;;;;7.45;4.05;;;16.10;99.90;;;;;;5051853;28;20036;-65
2022/06/11 00:32:59;;;;;;;9.27;4.25;;;16.10;99.90;;;;;;5053086;28;20083;-65
2022/06/11 00:35:27;;;;;;;8.48;4.43;;;16.00;99.90;;;;;;5053191;28;20072;-65
2022/06/11 00:37:53;;;;;;;6.60;4.30;;;16.00;99.90;;;;;;5051937;28;20051;-64
2022/06/11 00:40:22;;;;;;;11.32;4.40;;;15.90;99.90;;;;;;5053050;28;20496;-65
2022/06/11 00:42:48;;;;;;;9.13;4.15;;;15.80;99.90;;;;;;5053222;28;20043;-65
2022/06/11 00:45:47;;;;;;;7.80;4.43;;;15.80;99.90;;;;;;5052803;28;20040;-67
2022/06/11 00:48:33;;;;;;;6.05;3.90;;;15.80;99.90;;;;;;5051580;28;20079;-66
2022/06/11 00:51:05;;;;;;;7.78;3.88;;;15.70;99.90;;;;;;5051655;28;20041;-64
2022/06/11 00:53:45;;;;;;;8.38;4.43;;;15.70;99.90;;;;;;5034759;28;20128;-64
2022/06/11 00:56:33;;;;;;;8.52;5.28;;;15.70;99.90;;;;;;5051944;28;20106;-65
2022/06/11 00:59:02;;;;;;;8.73;4.90;;;15.60;99.90;;;;;;5052703;28;20041;-64
2022/06/11 01:01:29;;;;;;;5.25;4.20;;;15.60;99.90;;;;;;5052405;28;20049;-64
2022/06/11 01:03:58;;;;;;;7.88;4.78;;;15.60;99.90;;;;;;5051436;28;20071;-66
2022/06/11 01:06:51;;;;;;;6.40;3.88;;;15.50;99.90;;;;;;5051513;28;20099;-65
2022/06/11 01:09:35;;;;;;;;;;;15.50;99.90;;;;;;5053010;28;20043;-66
2022/06/11 01:12:25;;;;;;;7.82;4.30;;;15.40;99.90;;;;;;5051264;28;19924;-64
2022/06/11 01:15:12;;;;;;;6.70;4.07;;;15.30;99.90;;;;;;5051324;28;20045;-65
2022/06/11 01:18:01;;;;;;;9.30;4.65;;;15.30;99.90;;;;;;5048572;28;20515;-64
2022/06/11 01:20:41;;;;;;;5.80;5.05;;;15.30;99.90;;;;;;5048338;28;20094;-65
2022/06/11 01:23:49;;;;;;;7.45;4.40;;;15.30;99.90;;;;;;5051725;28;20048;-65
2022/06/11 01:26:32;;;;;;;6.25;4.47;;;15.20;99.90;;;;;;5050682;28;20041;-66
2022/06/11 01:29:07;;;;;;;8.88;4.38;;;15.20;99.90;;;;;;5052016;28;20041;-65
2022/06/11 01:31:51;;;;;;;9.85;4.78;;;15.20;99.90;;;;;;5050863;28;20484;-64
2022/06/11 01:34:39;;;;;;;9.30;4.45;;;15.10;99.90;;;;;;5052012;28;20051;-65
2022/06/11 01:37:13;;;;;;;9.80;4.80;;;15.10;99.90;;;;;;5051646;28;20123;-65
2022/06/11 01:40:02;;;;;;;7.70;5.20;;;15.10;99.90;;;;;;5050337;28;20048;-65
2022/06/11 01:42:46;;;;;;;9.02;5.25;;;15.00;99.90;;;;;;5051698;28;20087;-65
2022/06/11 01:45:18;;;;;;;9.38;4.90;;;15.00;99.90;;;;;;5050364;28;20257;-64
2022/06/11 01:47:45;;;;;;;10.63;5.30;;;15.00;99.90;;;;;;5050348;28;20041;-63
2022/06/11 01:50:14;;;;;;;11.75;4.90;;;15.00;99.90;;;;;;5051248;28;20106;-64
2022/06/11 01:52:51;;;;;;;8.55;4.78;;;15.00;99.90;;;;;;5051528;28;20033;-66
2022/06/11 01:55:21;;;;;;;11.27;4.78;;;15.00;99.90;;;;;;5052100;28;20111;-66
2022/06/11 01:58:11;;;;;;;7.90;4.82;;;15.00;99.90;;;;;;5050413;28;20108;-64
2022/06/11 02:00:53;;;;;;;7.63;4.97;;;15.00;99.90;;;;;;5050148;28;20041;-66
2022/06/11 02:04:03;;;;;;;9.70;5.07;;;15.00;99.90;;;;;;5051415;28;20053;-65
2022/06/11 02:06:44;;;;;;;9.07;5.05;;;15.00;99.90;;;;;;5051274;28;20045;-65
2022/06/11 02:09:40;;;;;;;9.07;5.22;;;14.90;99.90;;;;;;5050264;28;20146;-65
2022/06/11 02:12:23;;;;;;;8.80;5.10;;;15.00;99.90;;;;;;5051587;28;20032;-65
2022/06/11 02:14:59;;;;;;;8.13;5.05;;;15.00;99.90;;;;;;5051236;28;20090;-65
2022/06/11 02:17:31;;;;;;;7.63;5.07;;;15.00;99.90;;;;;;5051513;28;20049;-65
2022/06/11 02:20:05;;;;;;;9.18;4.80;;;15.00;99.90;;;;;;5051349;28;20119;-65
2022/06/11 02:22:41;;;;;;;9.10;4.90;;;14.90;99.90;;;;;;5051392;28;20040;-64
2022/06/11 02:25:22;;;;;;;10.32;5.50;;;15.00;99.90;;;;;;5049941;28;20528;-65
2022/06/11 02:27:50;;;;;;;8.63;5.00;;;14.90;99.90;;;;;;5049674;28;20052;-65
2022/06/11 02:30:21;;;;;;;9.93;5.50;;;14.90;99.90;;;;;;5049943;28;20112;-64
2022/06/11 02:32:47;;;;;;;7.32;5.57;;;14.90;99.90;;;;;;5050127;28;20131;-64
2022/06/11 02:35:23;;;;;;;10.60;5.45;;;14.80;99.90;;;;;;5049908;28;20037;-64
2022/06/11 02:37:49;;;;;;;9.52;5.85;;;14.80;99.90;;;;;;5049533;28;20037;-65
2022/06/11 02:40:17;;;;;;;8.50;5.25;;;14.80;99.90;;;;;;5049837;28;20503;-65
2022/06/11 02:42:44;;;;;;;8.07;4.82;;;14.80;99.90;;;;;;5049587;28;20124;-65
2022/06/11 02:45:12;;;;;;;9.45;5.65;;;14.80;99.90;;;;;;5050654;28;20033;-65
2022/06/11 02:47:40;;;;;;;8.13;5.10;;;14.70;99.90;;;;;;5050858;28;20063;-64
2022/06/11 02:50:07;;;;;;;8.52;4.93;;;14.70;99.90;;;;;;5050648;28;20044;-64
2022/06/11 02:52:33;;;;;;;7.60;5.22;;;14.70;99.90;;;;;;5050914;28;20043;-65
2022/06/11 02:54:59;;;;;;;8.00;5.32;;;14.60;99.90;;;;;;5049344;28;20047;-64
2022/06/11 02:57:29;;;;;;;6.75;4.97;;;14.60;99.90;;;;;;5050579;28;20045;-65
2022/06/11 02:59:56;;;;;;;7.20;5.63;;;14.50;99.90;;;;;;5050068;28;20091;-63
2022/06/11 03:02:23;;;;;;;14.35;7.03;;;14.50;99.90;;;;;;5049055;28;20141;-66
2022/06/11 03:04:50;;;;;;;8.60;6.10;;;14.50;99.90;;;;;;5049383;28;20059;-66
2022/06/11 03:07:17;;;;;;;9.85;5.85;;;14.40;99.90;;;;;;5050711;28;20472;-64
2022/06/11 03:09:43;;;;;;;9.15;5.85;;;14.40;99.90;;;;;;5047794;28;20108;-65
2022/06/11 03:12:11;;;;;;;9.50;5.32;;;14.40;99.90;;;;;;5048560;28;20116;-65
2022/06/11 03:14:37;;;;;;;11.82;7.25;;;14.40;99.90;;;;;;5048887;28;20041;-64
2022/06/11 03:17:05;;;;;;;13.85;8.25;;;14.40;99.90;;;;;;5048710;28;20058;-66
2022/06/11 03:19:31;;;;;;;17.63;7.60;;;14.40;99.90;;;;;;5048789;28;20037;-65
2022/06/11 03:21:57;;;;;;;13.07;7.05;;;14.30;99.90;;;;;;5049140;28;20048;-64
2022/06/11 03:24:25;;;;;;;13.45;7.32;;;14.40;99.90;;;;;;5048794;28;20049;-64
2022/06/11 03:26:51;;;;;;;11.90;7.13;;;14.40;99.90;;;;;;5050055;28;20121;-66
2022/06/11 03:29:18;;;;;;;14.32;7.18;;;14.40;99.90;;;;;;5050164;28;20044;-65
2022/06/11 03:31:45;;;;;;;10.00;5.82;;;14.40;99.90;;;;;;5049990;28;20049;-65
2022/06/11 03:34:11;;;;;;;12.98;6.28;;;14.40;99.90;;;;;;5049782;28;20089;-64
2022/06/11 03:36:38;;;;;;;11.75;5.15;;;14.40;99.90;;;;;;5049016;28;20044;-64
2022/06/11 03:39:04;;;;;;;13.20;5.28;;;14.40;99.90;;;;;;5049695;28;20033;-64
2022/06/11 03:41:31;;;;;;;9.10;4.63;;;14.50;99.90;;;;;;5049839;28;20037;-65
2022/06/11 03:43:57;;;;;;;10.60;4.70;;;14.50;99.90;;;;;;5049856;28;20048;-65
2022/06/11 03:46:23;;;;;;;10.25;4.32;;;14.50;99.90;;;;;;5048969;28;20049;-65
2022/06/11 03:48:48;;;;;;;11.23;4.50;;;14.50;99.90;;;;;;5049186;28;20041;-64
2022/06/11 03:51:14;;;;;;;12.15;4.20;;;14.60;99.90;;;;;;5050244;28;20424;-65
2022/06/11 03:53:41;;;;;;;10.93;3.58;;;14.60;99.90;;;;;;5050194;28;20127;-63
2022/06/11 03:56:08;;;;;;;12.98;3.83;;;14.60;99.90;;;;;;5050145;28;20029;-64
2022/06/11 03:58:36;;;;;;;11.70;3.72;;;14.60;99.90;;;;;;5050253;28;20059;-64
2022/06/11 04:01:14;;;;;;;11.02;3.65;;;14.60;99.90;;;;;;5049885;28;20075;-65
2022/06/11 04:03:47;;;;;;;11.32;3.38;;;14.60;99.90;;;;;;5049780;28;20052;-65
2022/06/11 04:06:14;;;;;;;13.57;3.45;;;14.60;99.90;;;;;;5049945;28;20056;-65
2022/06/11 04:08:41;;;;;;;10.30;2.78;;;14.70;99.90;;;;;;5048581;28;20467;-65
2022/06/11 04:11:08;;;;;;;13.13;3.13;;;14.70;99.90;;;;;;5049944;28;20040;-64
2022/06/11 04:13:35;;;;;;;13.40;3.13;;;14.70;99.90;;;;;;5053737;28;20483;-65
2022/06/11 04:16:02;;;;;;;14.57;3.45;;;14.70;99.90;;;;;;5053326;28;20411;-66
2022/06/11 04:18:35;;;;;;;10.60;2.92;;;14.70;99.90;;;;;;5052710;28;20080;-64
2022/06/11 04:21:04;;;;;;;13.25;2.75;;;14.80;99.90;;;;;;5053428;28;20059;-64
2022/06/11 04:23:30;;;;;;;12.68;3.08;;;14.80;99.90;;;;;;5052297;28;20048;-64
2022/06/11 04:25:58;;;;;;;14.15;3.35;;;14.80;99.90;;;;;;5053501;28;20484;-65
2022/06/11 04:28:25;;;;;;;15.85;3.28;;;14.90;99.90;;;;;;5052355;28;20041;-64
2022/06/11 04:30:51;;;;;;;10.90;3.05;;;14.90;99.90;;;;;;5052193;28;20045;-65
2022/06/11 04:33:17;;;;;;;12.05;3.03;;;14.90;99.90;;;;;;5053372;28;20029;-65
2022/06/11 04:35:42;;;;;;;14.40;3.13;;;15.00;99.90;;;;;;5053372;28;20098;-66
2022/06/11 04:38:08;;;;;;;10.55;3.03;;;15.00;99.90;;;;;;5053065;28;20052;-65
2022/06/11 04:40:34;;;;;;;12.75;3.03;;;15.10;99.90;;;;;;5053281;28;20037;-63
2022/06/11 04:42:59;;;;;;;14.73;2.70;;;15.10;99.90;;;;;;5052968;28;20130;-64
2022/06/11 04:45:25;;;;;;;12.65;2.92;;;15.20;99.90;;;;;;5053041;28;20033;-65
2022/06/11 04:47:51;;;;;;;11.50;3.53;;;15.20;99.90;;;;;;5053190;28;20037;-65
2022/06/11 04:50:17;;;;;;;9.23;2.97;;;15.20;99.90;;;;;;5053090;28;20033;-66
2022/06/11 04:52:43;;;;;;;10.52;2.83;;;15.20;99.90;;;;;;5053131;28;20040;-65
2022/06/11 04:55:10;;;;;;;13.82;3.00;;;15.30;99.90;;;;;;5052709;28;20053;-65
2022/06/11 04:57:36;;;;;;;11.50;2.65;;;15.30;99.90;;;;;;5051574;28;20052;-64
2022/06/11 05:00:05;;;;;;;11.30;3.15;;;15.40;99.90;;;;;;5047779;28;20412;-65
2022/06/11 05:02:30;;;;;;;11.52;3.50;;;15.40;99.90;;;;;;5050663;28;20107;-63
2022/06/11 05:04:56;;;;;;;10.57;2.80;;;15.40;99.90;;;;;;5051206;28;20435;-64
2022/06/11 05:07:22;;;;;;;12.70;3.08;;;15.50;99.90;;;;;;5050926;28;20136;-66
2022/06/11 05:09:48;;;;;;;9.32;3.05;;;15.50;99.90;;;;;;5052437;28;20048;-65
2022/06/11 05:12:14;;;;;;;8.68;3.28;;;15.60;99.90;;;;;;5050874;28;20388;-65
2022/06/11 05:14:40;;;;;;;11.32;3.17;;;15.70;99.90;;;;;;5052513;28;20399;-66
2022/06/11 05:17:06;;;;;;;15.88;4.18;;;15.80;99.90;;;;;;5034390;28;20071;-65
2022/06/11 05:19:33;;;;;;;12.50;3.85;;;15.80;99.90;;;;;;5052232;28;20398;-64
2022/06/11 05:21:58;;;;;;;16.75;4.18;;;15.80;99.90;;;;;;5052076;28;20047;-65
2022/06/11 05:24:25;;;;;;;8.98;3.20;;;15.90;99.90;;;;;;5051476;28;20044;-64
2022/06/11 05:26:58;;;;;;;21.17;4.05;;;15.90;99.90;;;;;;5050554;28;20040;-65
2022/06/11 05:29:52;;;;;;;17.42;4.28;;;15.90;99.90;;;;;;5052130;28;20044;-65
2022/06/11 05:32:22;;;;;;;30.17;6.78;;;16.00;99.90;;;;;;5052086;28;20056;-65
2022/06/11 05:34:49;;;;;;;11.77;3.95;;;16.00;99.90;;;;;;5052372;28;20049;-65
2022/06/11 05:37:15;;;;;;;13.73;3.00;;;16.10;99.90;;;;;;5034303;28;20044;-64
2022/06/11 05:39:42;;;;;;;11.45;3.15;;;16.20;99.90;;;;;;5052158;28;20079;-65
2022/06/11 05:42:08;;;;;;;10.10;3.70;;;16.20;99.90;;;;;;5050738;28;20040;-65
2022/06/11 05:44:34;;;;;;;13.27;3.42;;;16.20;99.90;;;;;;5051844;28;20043;-66
2022/06/11 05:47:00;;;;;;;11.05;3.33;;;16.30;99.90;;;;;;5050791;28;20045;-66
2022/06/11 05:49:34;;;;;;;14.98;3.75;;;16.30;99.90;;;;;;5052074;28;20459;-65
2022/06/11 05:52:02;;;;;;;10.88;3.30;;;16.30;99.90;;;;;;5050508;28;20079;-64
2022/06/11 05:54:31;;;;;;;15.00;4.00;;;16.30;99.90;;;;;;5050515;28;20052;-65
2022/06/11 05:56:57;;;;;;;15.02;3.70;;;16.40;99.90;;;;;;5050756;28;20196;-65
2022/06/11 05:59:29;;;;;;;12.15;3.60;;;16.50;99.90;;;;;;5051673;28;20124;-65
2022/06/11 06:01:56;;;;;;;13.45;3.30;;;16.50;99.90;;;;;;5050294;28;20059;-66
2022/06/11 06:04:22;;;;;;;14.05;3.85;;;16.60;99.90;;;;;;5051385;28;20095;-64
2022/06/11 06:06:47;;;;;;;21.15;5.40;;;16.60;99.90;;;;;;5051864;28;20064;-65
2022/06/11 06:09:13;;;;;;;23.05;4.57;;;16.60;99.90;;;;;;5051379;28;20041;-65
2022/06/11 06:11:39;;;;;;;16.90;3.47;;;16.70;99.90;;;;;;5050096;28;20111;-64
2022/06/11 06:14:05;;;;;;;19.35;4.13;;;16.70;99.90;;;;;;5050054;28;20045;-65
2022/06/11 06:16:31;;;;;;;18.83;4.07;;;16.80;99.90;;;;;;5050276;28;20132;-64
2022/06/11 06:18:59;;;;;;;18.33;4.22;;;17.00;99.90;;;;;;5051391;28;20040;-64
2022/06/11 06:21:27;;;;;;;24.40;4.68;;;17.10;99.90;;;;;;5049913;28;20048;-65
2022/06/11 06:23:53;;;;;;;16.45;3.80;;;17.10;99.90;;;;;;5051329;28;20480;-64
2022/06/11 06:26:19;;;;;;;15.90;3.70;;;17.20;99.90;;;;;;5051104;28;20431;-64
2022/06/11 06:28:45;;;;;;;19.13;3.72;;;17.30;99.90;;;;;;5051157;28;20036;-63
2022/06/11 06:31:12;;;;;;;16.27;4.50;;;17.40;99.90;;;;;;5050982;28;20029;-65
2022/06/11 06:33:38;;;;;;;14.50;4.38;;;17.40;99.90;;;;;;5049692;28;20045;-65
2022/06/11 06:36:06;;;;;;;11.88;3.63;;;17.40;99.90;;;;;;5049841;28;20069;-65
2022/06/11 06:38:32;;;;;;;19.83;4.30;;;17.40;99.90;;;;;;5049984;28;20063;-64
2022/06/11 06:40:58;;;;;;;20.52;3.83;;;17.40;99.90;;;;;;5049760;28;20048;-65
2022/06/11 06:43:24;;;;;;;16.77;3.30;;;17.50;99.90;;;;;;5049446;28;21495;-65
2022/06/11 06:45:50;;;;;;;17.52;3.70;;;17.50;99.90;;;;;;5045431;28;20037;-65
2022/06/11 06:48:16;;;;;;;16.65;3.97;;;17.60;99.90;;;;;;5050600;28;20025;-64
2022/06/11 06:50:42;;;;;;;17.52;3.97;;;17.70;99.90;;;;;;5046948;28;20428;-65
2022/06/11 06:53:07;;;;;;;13.50;3.92;;;17.80;99.90;;;;;;5048835;28;20031;-65
2022/06/11 06:55:33;;;;;;;23.15;5.60;;;17.90;99.90;;;;;;5050550;28;20043;-64
2022/06/11 06:57:59;;;;;;;20.52;4.32;;;18.00;99.90;;;;;;5050507;28;20044;-65
2022/06/11 07:00:25;;;;;;;18.95;4.05;;;18.10;99.90;;;;;;5049028;28;20052;-64
2022/06/11 07:02:53;;;;;;;17.42;3.90;;;18.20;99.90;;;;;;5050031;28;20041;-65
2022/06/11 07:05:19;;;;;;;17.08;3.92;;;18.20;99.90;;;;;;5050282;28;20041;-65
2022/06/11 07:07:47;;;;;;;20.58;4.20;;;18.30;99.90;;;;;;5048757;28;20071;-64
2022/06/11 07:10:14;;;;;;;20.95;3.70;;;18.20;99.90;;;;;;5050050;28;20040;-65
2022/06/11 07:12:39;;;;;;;14.68;3.38;;;18.30;99.90;;;;;;5050087;28;20476;-65
2022/06/11 07:15:06;;;;;;;17.88;4.00;;;18.40;99.90;;;;;;5050154;28;20120;-65
2022/06/11 07:17:42;;;;;;;19.48;3.97;;;18.40;99.90;;;;;;5050204;28;20454;-64
2022/06/11 07:20:12;;;;;;;23.20;4.88;;;18.40;99.90;;;;;;5050461;28;20411;-65
2022/06/11 07:22:54;;;;;;;23.98;4.38;;;18.20;99.90;;;;;;5048512;28;20064;-65
2022/06/11 07:25:20;;;;;;;19.77;3.58;;;18.20;99.90;;;;;;5049255;28;20119;-66
2022/06/11 07:27:52;;;;;;;20.88;3.75;;;18.20;99.90;;;;;;5050120;28;20136;-65
2022/06/11 07:30:21;;;;;;;21.27;4.47;;;18.20;99.90;;;;;;5032456;28;20461;-66
2022/06/11 07:32:53;;;;;;;19.67;4.53;;;18.40;99.90;;;;;;5048896;28;20124;-65
2022/06/11 07:35:19;;;;;;;17.08;4.03;;;18.40;99.90;;;;;;5049240;28;20036;-65
2022/06/11 07:37:46;;;;;;;19.85;4.63;;;18.50;99.90;;;;;;5049128;28;20487;-64
2022/06/11 07:40:12;;;;;;;14.57;3.53;;;18.70;99.90;;;;;;5049211;28;20049;-66
2022/06/11 07:42:38;;;;;;;22.55;4.70;;;18.90;99.90;;;;;;5050306;28;20123;-65
2022/06/11 07:45:05;;;;;;;18.15;3.83;;;18.90;99.90;;;;;;5050574;28;20123;-65
2022/06/11 07:50:14;;;;;;;20.02;4.25;;;19.00;99.90;;;;;;5053323;28;20037;-65
2022/06/11 07:52:41;;;;;;;22.58;4.50;;;19.10;99.90;;;;;;5052585;28;20044;-64
2022/06/11 07:55:09;;;;;;;21.67;4.70;;;19.20;99.90;;;;;;5053009;28;20037;-65
2022/06/11 07:57:35;;;;;;;14.88;3.63;;;19.20;99.90;;;;;;5052791;28;20044;-64
2022/06/11 08:00:01;;;;;;;15.80;3.70;;;19.10;99.90;;;;;;5054034;28;20364;-66
2022/06/11 08:02:26;;;;;;;20.80;4.60;;;19.20;99.90;;;;;;5053787;28;20057;-65
2022/06/11 08:04:52;;;;;;;21.20;4.60;;;19.30;99.90;;;;;;5053563;28;20052;-64
2022/06/11 08:07:18;;;;;;;19.95;4.05;;;19.30;99.90;;;;;;5053858;28;20431;-64
2022/06/11 08:09:44;;;;;;;18.92;4.30;;;19.40;99.90;;;;;;5053659;28;20107;-64
2022/06/11 08:12:10;;;;;;;24.83;4.50;;;19.60;99.90;;;;;;5053684;28;20033;-66
2022/06/11 08:14:36;;;;;;;19.10;4.53;;;19.70;99.90;;;;;;5052760;28;20135;-65
2022/06/11 08:17:02;;;;;;;19.95;3.78;;;19.80;99.90;;;;;;5052327;28;20127;-66
2022/06/11 08:19:28;;;;;;;19.38;3.63;;;19.80;99.90;;;;;;5053596;28;20040;-63
2022/06/11 08:21:56;;;;;;;21.00;4.90;;;19.90;99.90;;;;;;5051909;28;20049;-64
2022/06/11 08:24:22;;;;;;;16.38;4.18;;;19.90;99.90;;;;;;5053519;28;20052;-65
2022/06/11 08:26:47;;;;;;;18.75;3.90;;;20.10;99.90;;;;;;5052338;28;20060;-66
2022/06/11 08:29:13;;;;;;;23.30;4.60;;;20.10;99.90;;;;;;5053366;28;20033;-65
2022/06/11 08:31:39;;;;;;;24.50;4.55;;;20.20;99.90;;;;;;5052586;28;20045;-67
2022/06/11 08:34:04;;;;;;;22.60;4.25;;;20.00;99.90;;;;;;5053103;28;20040;-64
2022/06/11 08:36:30;;;;;;;18.98;4.05;;;19.90;99.90;;;;;;5051974;28;20098;-64
2022/06/11 08:38:56;;;;;;;19.33;4.10;;;19.70;99.90;;;;;;5053054;28;20032;-66
2022/06/11 08:41:28;;;;;;;20.00;4.43;;;19.60;99.90;;;;;;5051359;28;20051;-64
2022/06/11 08:44:01;;;;;;;18.58;4.07;;;19.60;99.90;;;;;;5050597;28;20040;-66
2022/06/11 08:46:32;;;;;;;15.63;3.35;;;19.70;99.90;;;;;;5051589;28;20472;-65
2022/06/11 08:49:02;;;;;;;17.40;4.00;;;19.90;99.90;;;;;;5052486;28;20037;-65
2022/06/11 08:51:40;;;;;;;21.75;4.07;;;20.10;99.90;;;;;;5052793;28;20036;-64
2022/06/11 08:54:11;;;;;;;13.57;3.55;;;20.30;99.90;;;;;;5051369;28;20048;-67
2022/06/11 08:56:37;;;;;;;17.03;3.70;;;20.40;99.90;;;;;;5051766;28;20047;-66
2022/06/11 08:59:27;;;;;;;19.60;4.50;;;20.40;99.90;;;;;;5050212;28;20040;-65
2022/06/11 09:02:36;;;;;;;16.88;4.78;;;20.60;99.90;;;;;;5047063;28;20049;-65
2022/06/11 09:05:40;;;;;;;14.60;3.00;;;20.70;99.90;;;;;;5051060;28;20072;-65
2022/06/11 09:08:36;;;;;;;14.85;3.70;;;20.80;99.90;;;;;;5051043;28;20439;-64
2022/06/11 09:11:31;;;;;;;18.25;3.67;;;20.90;99.90;;;;;;5052444;28;20506;-66
2022/06/11 09:14:24;;;;;;;16.50;3.60;;;20.90;99.90;;;;;;4974684;28;20054;-65
2022/06/11 09:16:58;;;;;;;16.17;3.50;;;21.10;99.90;;;;;;4974550;28;20045;-66
2022/06/11 09:19:46;;;;;;;19.42;3.70;;;21.00;99.90;;;;;;4990754;28;20050;-65
2022/06/11 09:22:18;;;;;;;16.50;3.63;;;21.10;99.90;;;;;;4990760;28;20042;-65
2022/06/11 09:25:11;;;;;;;15.68;3.42;;;21.20;99.90;;;;;;4990694;28;20042;-65
2022/06/11 09:27:42;;;;;;;14.63;3.28;;;21.10;99.90;;;;;;4974656;28;20050;-66
2022/06/11 09:30:18;;;;;;;12.60;2.95;;;21.10;99.90;;;;;;4974771;28;20445;-65
2022/06/11 09:32:46;;;;;;;13.85;2.80;;;21.10;99.90;;;;;;4990958;28;20046;-65
2022/06/11 09:35:23;;;;;;;17.13;2.70;;;21.20;99.90;;;;;;4990854;28;20437;-66
2022/06/11 09:38:06;;;;;;;16.42;3.65;;;21.40;99.90;;;;;;4974679;28;20058;-64
2022/06/11 09:40:32;;;;;;;13.45;2.90;;;21.50;99.90;;;;;;4990181;28;20046;-66
2022/06/11 09:43:26;;;;;;;12.82;2.60;;;21.60;99.90;;;;;;4974472;28;20046;-66
2022/06/11 09:46:11;;;;;;;17.58;4.10;;;21.60;99.90;;;;;;4990568;28;20051;-65
2022/06/11 09:49:01;;;;;;;13.48;3.30;;;21.80;99.90;;;;;;4974132;28;20034;-65
2022/06/11 09:51:49;;;;;;;13.95;3.55;;;21.80;99.90;;;;;;5025746;28;20487;-65
2022/06/11 09:54:34;;;;;;;15.93;3.38;;;22.00;99.90;;;;;;5051954;28;20453;-66
2022/06/11 09:57:26;;;;;;;15.13;2.95;;;22.20;99.90;;;;;;5050630;28;20084;-66
2022/06/11 10:00:00;;;;;;;14.27;3.10;;;22.20;99.90;;;;;;5050516;28;20045;-64
2022/06/11 10:02:37;;;;;;;16.90;3.00;;;22.30;99.90;;;;;;5051428;28;20061;-65
2022/06/11 10:05:15;;;;;;;11.20;2.80;;;22.20;99.80;;;;;;5051624;28;20080;-65
2022/06/11 10:07:46;;;;;;;15.02;3.15;;;22.40;99.90;;;;;;5051621;28;20091;-65
2022/06/11 10:10:24;;;;;;;13.15;2.53;;;22.30;99.90;;;;;;5051080;28;20120;-66
2022/06/11 10:12:56;;;;;;;11.05;3.13;;;22.30;99.80;;;;;;5051379;28;20040;-66
2022/06/11 10:15:27;;;;;;;10.95;2.58;;;22.30;99.50;;;;;;5050126;28;20123;-65
2022/06/11 10:18:00;;;;;;;14.68;2.70;;;22.30;99.80;;;;;;5051265;28;20044;-65
2022/06/11 10:20:36;;;;;;;11.68;2.40;;;22.50;99.90;;;;;;5051297;28;20427;-66
2022/06/11 10:23:31;;;;;;;10.05;2.40;;;22.70;99.10;;;;;;5051507;28;20115;-65
2022/06/11 10:26:00;;;;;;;14.18;3.33;;;22.60;97.50;;;;;;5051229;28;20048;-65
2022/06/11 10:28:32;;;;;;;19.30;3.08;;;22.70;98.90;;;;;;5051168;28;20086;-66
2022/06/11 10:31:42;;;;;;;12.98;3.40;;;22.80;98.70;;;;;;5050113;28;20500;-66
2022/06/11 10:34:25;;;;;;;10.35;2.83;;;23.10;98.40;;;;;;5009280;28;20060;-66
2022/06/11 10:37:08;;;;;;;10.70;2.97;;;23.10;96.30;;;;;;5028427;28;20041;-66
2022/06/11 10:39:49;;;;;;;13.20;2.38;;;23.10;97.40;;;;;;5011455;28;20143;-65
2022/06/11 10:42:42;;;;;;;10.93;2.58;;;23.20;97.00;;;;;;5028696;28;20041;-66
2022/06/11 10:45:13;;;;;;;16.23;2.83;;;23.40;97.20;;;;;;5028467;28;20053;-66
2022/06/11 10:47:42;;;;;;;10.05;2.70;;;23.40;95.40;;;;;;5028126;28;20107;-65
2022/06/11 10:50:11;;;;;;;9.93;2.22;;;23.30;94.60;;;;;;5028408;28;20111;-66
2022/06/11 10:52:58;;;;;;;9.57;2.20;;;23.30;96.00;;;;;;5012728;28;20050;-65
2022/06/11 10:55:27;;;;;;;10.60;2.53;;;23.40;96.50;;;;;;5028370;28;20045;-67
2022/06/11 10:57:54;;;;;;;12.02;2.38;;;23.30;94.90;;;;;;5011804;28;20115;-66
2022/06/11 11:00:28;;;;;;;10.73;2.95;;;23.30;95.60;;;;;;4995383;28;20614;-65
2022/06/11 11:03:01;;;;;;;10.40;2.13;;;23.30;94.60;;;;;;5027906;28;20494;-65
2022/06/11 11:05:45;;;;;;;12.25;2.70;;;23.00;93.60;;;;;;5044434;28;20173;-65
2022/06/11 11:08:12;;;;;;;13.20;3.50;;;23.00;95.00;;;;;;5049484;28;20144;-65
2022/06/11 11:10:47;;;;;;;11.38;2.50;;;22.90;94.50;;;;;;5049076;28;20032;-66
2022/06/11 11:13:40;;;;;;;11.02;2.65;;;22.80;94.40;;;;;;5049304;28;20059;-66
2022/06/11 11:16:11;;;;;;;12.57;2.50;;;22.70;94.00;;;;;;5050641;28;20480;-65
2022/06/11 11:19:01;;;;;;;11.05;2.25;;;22.60;94.90;;;;;;5049205;28;20052;-64
2022/06/11 11:21:31;;;;;;;11.05;2.97;;;22.60;94.80;;;;;;5041926;28;20107;-66
2022/06/11 11:24:24;;;;;;;10.10;2.50;;;22.70;94.40;;;;;;5050502;28;20479;-66
2022/06/11 11:26:57;;;;;;;15.60;2.60;;;22.60;94.30;;;;;;5049270;28;20033;-66
2022/06/11 11:29:36;;;;;;;11.85;2.63;;;22.70;94.70;;;;;;5050281;28;20056;-66
2022/06/11 11:32:34;;;;;;;12.70;2.60;;;22.60;93.70;;;;;;5049135;28;20041;-67
2022/06/11 11:35:13;;;;;;;13.45;2.92;;;22.70;93.80;;;;;;5050219;28;20130;-66
2022/06/11 11:37:39;;;;;;;11.27;2.78;;;22.70;95.40;;;;;;5048808;28;20068;-64
2022/06/11 11:40:32;;;;;;;11.68;2.88;;;22.60;94.80;;;;;;5048966;28;20036;-65
2022/06/11 11:43:03;;;;;;;12.05;3.00;;;22.70;94.50;;;;;;5050127;28;20045;-65
2022/06/11 11:45:44;;;;;;;9.98;2.28;;;22.60;95.10;;;;;;5048719;28;20049;-65
2022/06/11 11:48:25;;;;;;;9.38;2.35;;;22.60;95.20;;;;;;5050189;28;20384;-66
2022/06/11 11:50:55;;;;;;;11.00;2.38;;;22.40;94.30;;;;;;5049035;28;20476;-66
2022/06/11 11:53:29;;;;;;;11.63;2.80;;;22.30;93.80;;;;;;5050301;28;20040;-65
2022/06/11 11:55:59;;;;;;;11.50;2.47;;;22.10;94.10;;;;;;5048849;28;20079;-67
2022/06/11 11:58:31;;;;;;;10.35;2.33;;;22.20;94.40;;;;;;5050218;28;20484;-66
2022/06/11 12:01:13;;;;;;;12.75;2.72;;;21.90;92.80;;;;;;5050205;28;20056;-66
2022/06/11 12:03:51;;;;;;;11.95;2.35;;;21.80;93.80;;;;;;5049578;28;20068;-65
2022/06/11 12:06:45;;;;;;;8.20;2.17;;;21.70;94.20;;;;;;5048801;28;20056;-65
2022/06/11 12:09:43;;;;;;;9.45;2.13;;;21.60;94.60;;;;;;5048345;28;20056;-66
2022/06/11 12:12:09;;;;;;;7.38;1.80;;;21.70;94.80;;;;;;5027675;28;20507;-66
2022/06/11 12:14:49;;;;;;;11.88;2.60;;;21.80;95.20;;;;;;5011128;28;20057;-66
2022/06/11 12:17:28;;;;;;;11.77;2.42;;;21.80;94.60;;;;;;5027794;28;20080;-65
2022/06/11 12:20:04;;;;;;;10.57;2.67;;;21.70;94.80;;;;;;5027682;28;20133;-64
2022/06/11 12:22:43;;;;;;;10.63;2.60;;;21.60;94.60;;;;;;5011423;28;20057;-66
2022/06/11 12:25:21;;;;;;;11.20;2.85;;;21.50;94.10;;;;;;5008381;28;20481;-67
2022/06/11 12:27:48;;;;;;;10.60;2.72;;;21.60;94.40;;;;;;5026394;28;20450;-65
2022/06/11 12:30:27;;;;;;;8.65;2.75;;;21.60;95.10;;;;;;5027234;28;20139;-65
2022/06/11 12:32:53;;;;;;;9.80;2.50;;;21.60;94.90;;;;;;5028484;28;20041;-64
2022/06/11 12:35:43;;;;;;;9.40;2.70;;;21.50;94.80;;;;;;5014329;28;20037;-65
2022/06/11 12:38:19;;;;;;;10.35;2.53;;;21.40;95.40;;;;;;5030463;28;20515;-65
2022/06/11 12:41:12;;;;;;;12.70;2.75;;;21.50;96.10;;;;;;5030452;28;20045;-65
2022/06/11 12:43:51;;;;;;;8.80;2.60;;;21.60;96.70;;;;;;5011497;28;20112;-66
2022/06/11 12:47:09;;;;;;;11.45;2.53;;;21.60;96.00;;;;;;5030696;28;20511;-65
2022/06/11 12:49:46;;;;;;;10.85;2.85;;;21.70;95.70;;;;;;4971548;28;20375;-65
2022/06/11 12:52:28;;;;;;;10.15;2.60;;;21.60;95.70;;;;;;4971622;28;20051;-64
2022/06/11 12:54:59;;;;;;;10.60;2.80;;;21.70;95.50;;;;;;4954842;28;20081;-64
2022/06/11 12:57:58;;;;;;;10.20;2.72;;;21.50;95.80;;;;;;4971984;28;20050;-65
2022/06/11 13:00:56;;;;;;;10.02;2.67;;;21.60;96.70;;;;;;4971612;28;20059;-66
2022/06/11 13:04:20;;;;;;;12.00;2.70;;;21.60;95.80;;;;;;4971682;28;20050;-64
2022/06/11 13:06:52;;;;;;;13.88;3.03;;;21.60;96.60;;;;;;4952368;29;20055;-65
2022/06/11 13:09:50;;;;;;;16.30;2.53;;;21.50;96.20;;;;;;4952526;28;20499;-66
2022/06/11 13:12:32;;;;;;;11.90;2.97;;;21.60;96.30;;;;;;4952261;29;20051;-65
2022/06/11 13:14:58;;;;;;;11.60;2.60;;;21.70;97.60;;;;;;4952301;29;20145;-66